Terminal Aerodrome Forecast
Issued by NWS Twin Cities, MN

Home | Current Version | Previous Version | Graphics & Text | Print | Product List | Glossary On
Versions: 1 2 3 4 5 6 7 8 9 10 11 12 13 14 15 16 17 18 19
000
FTUS43 KMPX 161100
TAFEAU
TAF
KEAU 161120Z 1612/1712 00000KT P6SM SKC
     FM161600 24008KT P6SM FEW050
     FM170000 21003KT P6SM SKC
     FM170800 00000KT 3SM BR FEW006=

USA.gov is the U.S. government's official web portal to all federal, state and local government web resources and services.